Izumo Airport

Airport
ICAO code: 
RJOC
IATA Code: 
IZO
Summary
ICAO Region: 
APAC
Territory: 
Location: 
Izumo, Shimane
Serving: 
Izumo
Elevation: 
6 ft
Coordinates: 
Aerial View: 
35° 24' 47.888" N, 132° 53' 20.894" E
Metar
Observation
RJOC 270500Z 26025G35KT 9999 FEW025 25/12 Q0999
Station
Izumo Airport
Date/Time
2022-05-27 05:00:00
Wind direction
260°
Wind speed
25 kts
Lowest cloud amount
few clouds
Temperature
25°C
Dew point
12°C
Humidity
44%
QNH
999 hPa
Weather condition
n/a

Izumo Airport is an airport in Izumo, Shimane Prefecture, Japan

Climatology

Humid Sub-tropical climate (Köppen climate classification Cwa) - Hot humid summers and cooler winter. Significant precipitation in all seasons but drier in the winter.

Runways

Designator Length Width Surface Rops
7/25 2000 45 ASP Yes/Yes
Airport map: 
Aerial View: 

Accidents and Serious Incidents at or in the vicinity of RJOC

SKYbrary Partners:

Safety knowledge contributed by: